sensor_id;sensor_type;location;lat;lon;timestamp;temperature;humidity
80296;DHT22;74188;42.148;24.762;2024-03-02T00:00:19;10.60;75.40
80296;DHT22;74188;42.148;24.762;2024-03-02T00:02:47;10.70;75.30
80296;DHT22;74188;42.148;24.762;2024-03-02T00:05:16;10.70;75.20
80296;DHT22;74188;42.148;24.762;2024-03-02T00:07:43;10.70;74.90
80296;DHT22;74188;42.148;24.762;2024-03-02T00:10:11;10.70;74.90
80296;DHT22;74188;42.148;24.762;2024-03-02T00:12:37;10.60;75.20
80296;DHT22;74188;42.148;24.762;2024-03-02T00:17:44;10.70;74.90
80296;DHT22;74188;42.148;24.762;2024-03-02T00:20:15;10.70;74.90
80296;DHT22;74188;42.148;24.762;2024-03-02T00:22:43;10.80;74.50
80296;DHT22;74188;42.148;24.762;2024-03-02T00:25:09;10.80;74.20
80296;DHT22;74188;42.148;24.762;2024-03-02T00:27:36;10.80;74.40
80296;DHT22;74188;42.148;24.762;2024-03-02T00:30:51;10.70;74.60
80296;DHT22;74188;42.148;24.762;2024-03-02T00:32:51;10.70;74.60
80296;DHT22;74188;42.148;24.762;2024-03-02T00:35:23;10.60;74.90
80296;DHT22;74188;42.148;24.762;2024-03-02T00:37:49;10.60;74.90
80296;DHT22;74188;42.148;24.762;2024-03-02T00:40:15;10.70;75.00
80296;DHT22;74188;42.148;24.762;2024-03-02T00:42:41;10.70;74.80
80296;DHT22;74188;42.148;24.762;2024-03-02T00:45:08;10.70;74.40
80296;DHT22;74188;42.148;24.762;2024-03-02T00:47:38;10.80;74.10
80296;DHT22;74188;42.148;24.762;2024-03-02T00:50:05;10.90;73.90
80296;DHT22;74188;42.148;24.762;2024-03-02T00:52:32;10.90;73.60
80296;DHT22;74188;42.148;24.762;2024-03-02T00:54:58;10.90;73.30
80296;DHT22;74188;42.148;24.762;2024-03-02T00:57:24;10.90;73.50
80296;DHT22;74188;42.148;24.762;2024-03-02T00:59:51;10.80;73.80
80296;DHT22;74188;42.148;24.762;2024-03-02T01:02:17;10.90;73.70
80296;DHT22;74188;42.148;24.762;2024-03-02T01:04:45;10.80;73.80
80296;DHT22;74188;42.148;24.762;2024-03-02T01:07:11;10.80;73.90
80296;DHT22;74188;42.148;24.762;2024-03-02T01:09:37;10.80;73.90
80296;DHT22;74188;42.148;24.762;2024-03-02T01:12:02;10.80;74.00
80296;DHT22;74188;42.148;24.762;2024-03-02T01:14:28;10.80;74.30
80296;DHT22;74188;42.148;24.762;2024-03-02T01:16:54;10.80;74.20
80296;DHT22;74188;42.148;24.762;2024-03-02T01:19:20;10.80;74.40
80296;DHT22;74188;42.148;24.762;2024-03-02T01:21:46;10.80;74.30
80296;DHT22;74188;42.148;24.762;2024-03-02T01:24:12;10.80;74.00
80296;DHT22;74188;42.148;24.762;2024-03-02T01:26:38;10.80;74.00
80296;DHT22;74188;42.148;24.762;2024-03-02T01:29:04;10.90;74.00
80296;DHT22;74188;42.148;24.762;2024-03-02T01:31:29;10.90;73.80
80296;DHT22;74188;42.148;24.762;2024-03-02T01:33:55;11.00;73.80
80296;DHT22;74188;42.148;24.762;2024-03-02T01:36:21;10.90;73.80
80296;DHT22;74188;42.148;24.762;2024-03-02T01:38:47;10.90;74.00
80296;DHT22;74188;42.148;24.762;2024-03-02T01:41:12;10.80;74.50
80296;DHT22;74188;42.148;24.762;2024-03-02T01:43:38;10.70;74.70
80296;DHT22;74188;42.148;24.762;2024-03-02T01:46:04;10.70;75.00
80296;DHT22;74188;42.148;24.762;2024-03-02T01:48:30;10.70;75.10
80296;DHT22;74188;42.148;24.762;2024-03-02T01:50:55;10.70;75.00
80296;DHT22;74188;42.148;24.762;2024-03-02T01:53:21;10.80;74.80
80296;DHT22;74188;42.148;24.762;2024-03-02T01:55:47;10.80;75.00
80296;DHT22;74188;42.148;24.762;2024-03-02T01:58:13;10.60;75.60
80296;DHT22;74188;42.148;24.762;2024-03-02T02:00:38;10.50;76.00
80296;DHT22;74188;42.148;24.762;2024-03-02T02:03:04;10.60;76.20
80296;DHT22;74188;42.148;24.762;2024-03-02T02:05:30;10.60;76.20
80296;DHT22;74188;42.148;24.762;2024-03-02T02:07:57;10.50;76.40
80296;DHT22;74188;42.148;24.762;2024-03-02T02:10:24;10.40;76.90
80296;DHT22;74188;42.148;24.762;2024-03-02T02:12:49;10.30;77.60
80296;DHT22;74188;42.148;24.762;2024-03-02T02:15:23;10.20;77.90
80296;DHT22;74188;42.148;24.762;2024-03-02T02:17:48;10.20;78.00
80296;DHT22;74188;42.148;24.762;2024-03-02T02:20:14;10.30;79.00
80296;DHT22;74188;42.148;24.762;2024-03-02T02:22:40;10.30;77.50
80296;DHT22;74188;42.148;24.762;2024-03-02T02:25:06;10.40;77.40
80296;DHT22;74188;42.148;24.762;2024-03-02T02:27:31;10.40;77.40
80296;DHT22;74188;42.148;24.762;2024-03-02T02:29:57;10.40;77.10
80296;DHT22;74188;42.148;24.762;2024-03-02T02:32:23;10.40;77.10
80296;DHT22;74188;42.148;24.762;2024-03-02T02:34:52;10.50;76.80
80296;DHT22;74188;42.148;24.762;2024-03-02T02:37:18;10.50;76.90
80296;DHT22;74188;42.148;24.762;2024-03-02T02:39:44;10.50;77.10
80296;DHT22;74188;42.148;24.762;2024-03-02T02:42:12;10.50;77.00
80296;DHT22;74188;42.148;24.762;2024-03-02T02:44:37;10.40;77.10
80296;DHT22;74188;42.148;24.762;2024-03-02T02:47:03;10.30;77.70
80296;DHT22;74188;42.148;24.762;2024-03-02T02:49:29;10.40;77.60
80296;DHT22;74188;42.148;24.762;2024-03-02T02:51:54;10.40;77.40
80296;DHT22;74188;42.148;24.762;2024-03-02T02:54:20;10.30;77.70
80296;DHT22;74188;42.148;24.762;2024-03-02T02:56:46;10.40;77.80
80296;DHT22;74188;42.148;24.762;2024-03-02T02:59:11;10.40;77.60
80296;DHT22;74188;42.148;24.762;2024-03-02T03:01:37;10.40;77.80
80296;DHT22;74188;42.148;24.762;2024-03-02T03:04:03;10.40;77.90
80296;DHT22;74188;42.148;24.762;2024-03-02T03:06:28;10.40;77.60
80296;DHT22;74188;42.148;24.762;2024-03-02T03:08:54;10.40;77.80
80296;DHT22;74188;42.148;24.762;2024-03-02T03:11:20;10.40;77.90
80296;DHT22;74188;42.148;24.762;2024-03-02T03:13:46;10.40;78.10
80296;DHT22;74188;42.148;24.762;2024-03-02T03:16:12;10.50;77.90
80296;DHT22;74188;42.148;24.762;2024-03-02T03:18:38;10.50;77.80
80296;DHT22;74188;42.148;24.762;2024-03-02T03:21:07;10.30;78.30
80296;DHT22;74188;42.148;24.762;2024-03-02T03:23:33;10.20;78.70
80296;DHT22;74188;42.148;24.762;2024-03-02T03:25:59;10.20;78.80
80296;DHT22;74188;42.148;24.762;2024-03-02T03:28:24;10.40;78.40
80296;DHT22;74188;42.148;24.762;2024-03-02T03:30:50;10.50;77.90
80296;DHT22;74188;42.148;24.762;2024-03-02T03:33:16;10.50;77.80
80296;DHT22;74188;42.148;24.762;2024-03-02T03:35:41;10.50;77.80
80296;DHT22;74188;42.148;24.762;2024-03-02T03:38:07;10.50;77.90
80296;DHT22;74188;42.148;24.762;2024-03-02T03:40:33;10.50;77.50
80296;DHT22;74188;42.148;24.762;2024-03-02T03:42:58;10.50;78.00
80296;DHT22;74188;42.148;24.762;2024-03-02T03:45:25;10.50;77.60
80296;DHT22;74188;42.148;24.762;2024-03-02T03:47:53;10.50;77.50
80296;DHT22;74188;42.148;24.762;2024-03-02T03:50:18;10.50;77.40
80296;DHT22;74188;42.148;24.762;2024-03-02T03:52:45;10.60;78.00
80296;DHT22;74188;42.148;24.762;2024-03-02T03:55:10;10.50;77.40
80296;DHT22;74188;42.148;24.762;2024-03-02T03:57:36;10.50;77.40
80296;DHT22;74188;42.148;24.762;2024-03-02T04:00:03;10.40;77.50
80296;DHT22;74188;42.148;24.762;2024-03-02T04:02:29;10.50;77.50
80296;DHT22;74188;42.148;24.762;2024-03-02T04:04:55;10.50;77.60
80296;DHT22;74188;42.148;24.762;2024-03-02T04:07:20;10.40;77.70
80296;DHT22;74188;42.148;24.762;2024-03-02T04:09:46;10.40;78.00
80296;DHT22;74188;42.148;24.762;2024-03-02T04:12:12;10.40;78.10
80296;DHT22;74188;42.148;24.762;2024-03-02T04:14:38;10.40;77.80
80296;DHT22;74188;42.148;24.762;2024-03-02T04:17:04;10.40;77.80
80296;DHT22;74188;42.148;24.762;2024-03-02T04:19:30;10.30;78.30
80296;DHT22;74188;42.148;24.762;2024-03-02T04:21:56;10.10;79.20
80296;DHT22;74188;42.148;24.762;2024-03-02T04:24:21;10.10;79.90
80296;DHT22;74188;42.148;24.762;2024-03-02T04:26:47;10.10;79.90
80296;DHT22;74188;42.148;24.762;2024-03-02T04:29:13;10.10;79.90
80296;DHT22;74188;42.148;24.762;2024-03-02T04:31:38;10.10;80.30
80296;DHT22;74188;42.148;24.762;2024-03-02T04:34:04;10.00;80.50
80296;DHT22;74188;42.148;24.762;2024-03-02T04:36:30;10.00;80.20
80296;DHT22;74188;42.148;24.762;2024-03-02T04:38:55;10.00;80.70
80296;DHT22;74188;42.148;24.762;2024-03-02T04:41:21;10.10;80.60
80296;DHT22;74188;42.148;24.762;2024-03-02T04:43:46;10.10;80.30
80296;DHT22;74188;42.148;24.762;2024-03-02T04:46:12;10.30;79.20
80296;DHT22;74188;42.148;24.762;2024-03-02T04:48:38;10.20;79.70
80296;DHT22;74188;42.148;24.762;2024-03-02T04:51:03;10.10;80.20
80296;DHT22;74188;42.148;24.762;2024-03-02T04:53:29;10.20;80.20
80296;DHT22;74188;42.148;24.762;2024-03-02T04:55:55;10.20;80.00
80296;DHT22;74188;42.148;24.762;2024-03-02T04:58:55;10.20;80.00
80296;DHT22;74188;42.148;24.762;2024-03-02T05:01:21;10.30;79.90
80296;DHT22;74188;42.148;24.762;2024-03-02T05:03:47;10.30;79.60
80296;DHT22;74188;42.148;24.762;2024-03-02T05:06:13;10.40;79.50
80296;DHT22;74188;42.148;24.762;2024-03-02T05:08:38;10.40;79.10
80296;DHT22;74188;42.148;24.762;2024-03-02T05:11:04;10.40;79.00
80296;DHT22;74188;42.148;24.762;2024-03-02T05:13:48;10.40;78.90
80296;DHT22;74188;42.148;24.762;2024-03-02T05:16:14;10.50;78.60
80296;DHT22;74188;42.148;24.762;2024-03-02T05:18:40;10.50;78.60
80296;DHT22;74188;42.148;24.762;2024-03-02T05:21:05;10.50;78.50
80296;DHT22;74188;42.148;24.762;2024-03-02T05:23:31;10.50;78.30
80296;DHT22;74188;42.148;24.762;2024-03-02T05:25:56;10.50;78.20
80296;DHT22;74188;42.148;24.762;2024-03-02T05:28:22;10.50;78.00
80296;DHT22;74188;42.148;24.762;2024-03-02T05:30:48;10.60;77.90
80296;DHT22;74188;42.148;24.762;2024-03-02T05:33:15;10.60;77.90
80296;DHT22;74188;42.148;24.762;2024-03-02T05:35:40;10.50;78.20
80296;DHT22;74188;42.148;24.762;2024-03-02T05:38:06;10.40;78.80
80296;DHT22;74188;42.148;24.762;2024-03-02T05:40:31;10.40;79.10
80296;DHT22;74188;42.148;24.762;2024-03-02T05:42:57;10.30;79.40
80296;DHT22;74188;42.148;24.762;2024-03-02T05:45:23;10.40;79.10
80296;DHT22;74188;42.148;24.762;2024-03-02T05:47:48;10.40;79.10
80296;DHT22;74188;42.148;24.762;2024-03-02T05:50:14;10.50;78.70
80296;DHT22;74188;42.148;24.762;2024-03-02T05:52:40;10.50;78.60
80296;DHT22;74188;42.148;24.762;2024-03-02T05:55:05;10.60;78.10
80296;DHT22;74188;42.148;24.762;2024-03-02T05:57:31;10.60;77.90
80296;DHT22;74188;42.148;24.762;2024-03-02T06:00:11;10.70;77.80
80296;DHT22;74188;42.148;24.762;2024-03-02T06:02:40;10.70;77.80
80296;DHT22;74188;42.148;24.762;2024-03-02T06:05:08;10.60;77.80
80296;DHT22;74188;42.148;24.762;2024-03-02T06:07:34;10.60;77.70
80296;DHT22;74188;42.148;24.762;2024-03-02T06:10:00;10.70;77.70
80296;DHT22;74188;42.148;24.762;2024-03-02T06:12:25;10.70;77.70
80296;DHT22;74188;42.148;24.762;2024-03-02T06:14:51;10.70;77.60
80296;DHT22;74188;42.148;24.762;2024-03-02T06:17:17;10.80;77.20
80296;DHT22;74188;42.148;24.762;2024-03-02T06:19:42;10.90;76.80
80296;DHT22;74188;42.148;24.762;2024-03-02T06:22:08;11.00;76.50
80296;DHT22;74188;42.148;24.762;2024-03-02T06:24:36;11.00;76.00
80296;DHT22;74188;42.148;24.762;2024-03-02T06:27:03;11.00;76.20
80296;DHT22;74188;42.148;24.762;2024-03-02T06:29:29;11.10;76.20
80296;DHT22;74188;42.148;24.762;2024-03-02T06:31:57;11.00;76.30
80296;DHT22;74188;42.148;24.762;2024-03-02T06:34:23;11.10;76.30
80296;DHT22;74188;42.148;24.762;2024-03-02T06:36:48;11.10;76.00
80296;DHT22;74188;42.148;24.762;2024-03-02T06:39:14;11.10;75.90
80296;DHT22;74188;42.148;24.762;2024-03-02T06:41:40;11.10;76.00
80296;DHT22;74188;42.148;24.762;2024-03-02T06:44:05;11.10;75.80
80296;DHT22;74188;42.148;24.762;2024-03-02T06:46:32;11.10;75.80
80296;DHT22;74188;42.148;24.762;2024-03-02T06:48:57;11.20;75.40
80296;DHT22;74188;42.148;24.762;2024-03-02T06:51:23;11.30;75.20
80296;DHT22;74188;42.148;24.762;2024-03-02T06:53:49;11.30;74.90
80296;DHT22;74188;42.148;24.762;2024-03-02T06:56:14;11.30;74.80
80296;DHT22;74188;42.148;24.762;2024-03-02T06:58:40;11.30;75.10
80296;DHT22;74188;42.148;24.762;2024-03-02T07:01:05;11.10;75.30
80296;DHT22;74188;42.148;24.762;2024-03-02T07:03:31;11.10;75.60
80296;DHT22;74188;42.148;24.762;2024-03-02T07:05:58;11.00;76.10
80296;DHT22;74188;42.148;24.762;2024-03-02T07:08:23;11.00;76.30
80296;DHT22;74188;42.148;24.762;2024-03-02T07:10:49;11.00;76.50
80296;DHT22;74188;42.148;24.762;2024-03-02T07:13:15;11.00;76.50
80296;DHT22;74188;42.148;24.762;2024-03-02T07:15:41;11.00;76.30
80296;DHT22;74188;42.148;24.762;2024-03-02T07:18:32;11.10;76.10
80296;DHT22;74188;42.148;24.762;2024-03-02T07:21:09;11.30;75.60
80296;DHT22;74188;42.148;24.762;2024-03-02T07:23:34;11.30;74.90
80296;DHT22;74188;42.148;24.762;2024-03-02T07:26:00;11.20;74.90
80296;DHT22;74188;42.148;24.762;2024-03-02T07:28:27;11.30;75.00
80296;DHT22;74188;42.148;24.762;2024-03-02T07:31:03;11.30;74.80
80296;DHT22;74188;42.148;24.762;2024-03-02T07:33:30;11.40;74.80
80296;DHT22;74188;42.148;24.762;2024-03-02T07:35:56;11.30;74.70
80296;DHT22;74188;42.148;24.762;2024-03-02T07:38:22;11.20;75.00
80296;DHT22;74188;42.148;24.762;2024-03-02T07:40:48;11.30;74.80
80296;DHT22;74188;42.148;24.762;2024-03-02T07:43:18;11.30;74.80
80296;DHT22;74188;42.148;24.762;2024-03-02T07:45:44;11.40;75.10
80296;DHT22;74188;42.148;24.762;2024-03-02T07:48:10;11.50;74.40
80296;DHT22;74188;42.148;24.762;2024-03-02T07:50:36;11.50;74.20
80296;DHT22;74188;42.148;24.762;2024-03-02T07:53:03;11.50;74.10
80296;DHT22;74188;42.148;24.762;2024-03-02T07:55:29;11.60;74.00
80296;DHT22;74188;42.148;24.762;2024-03-02T07:58:00;11.70;73.80
80296;DHT22;74188;42.148;24.762;2024-03-02T08:00:25;11.70;73.50
80296;DHT22;74188;42.148;24.762;2024-03-02T08:02:52;11.70;73.20
80296;DHT22;74188;42.148;24.762;2024-03-02T08:05:18;11.70;73.30
80296;DHT22;74188;42.148;24.762;2024-03-02T08:07:45;11.70;73.20
80296;DHT22;74188;42.148;24.762;2024-03-02T08:10:11;11.80;73.30
80296;DHT22;74188;42.148;24.762;2024-03-02T08:12:37;11.80;73.30
80296;DHT22;74188;42.148;24.762;2024-03-02T08:15:03;11.80;73.30
80296;DHT22;74188;42.148;24.762;2024-03-02T08:17:29;11.90;73.00
80296;DHT22;74188;42.148;24.762;2024-03-02T08:19:56;11.90;73.30
80296;DHT22;74188;42.148;24.762;2024-03-02T08:22:22;11.90;73.10
80296;DHT22;74188;42.148;24.762;2024-03-02T08:24:48;11.80;73.10
80296;DHT22;74188;42.148;24.762;2024-03-02T08:27:14;11.90;73.00
80296;DHT22;74188;42.148;24.762;2024-03-02T08:29:40;11.90;72.70
80296;DHT22;74188;42.148;24.762;2024-03-02T08:32:07;12.00;72.60
80296;DHT22;74188;42.148;24.762;2024-03-02T08:34:32;12.10;72.50
80296;DHT22;74188;42.148;24.762;2024-03-02T08:37:01;12.10;72.40
80296;DHT22;74188;42.148;24.762;2024-03-02T08:39:27;12.00;72.40
80296;DHT22;74188;42.148;24.762;2024-03-02T08:41:53;12.00;72.40
80296;DHT22;74188;42.148;24.762;2024-03-02T08:44:20;11.90;72.90
80296;DHT22;74188;42.148;24.762;2024-03-02T08:46:46;11.90;72.70
80296;DHT22;74188;42.148;24.762;2024-03-02T08:49:12;11.90;72.70
80296;DHT22;74188;42.148;24.762;2024-03-02T08:51:38;11.90;72.90
80296;DHT22;74188;42.148;24.762;2024-03-02T08:54:03;11.90;72.90
80296;DHT22;74188;42.148;24.762;2024-03-02T08:56:30;12.00;72.90
80296;DHT22;74188;42.148;24.762;2024-03-02T08:58:56;12.00;72.60
80296;DHT22;74188;42.148;24.762;2024-03-02T09:01:22;12.10;72.80
80296;DHT22;74188;42.148;24.762;2024-03-02T09:03:48;12.20;72.30
80296;DHT22;74188;42.148;24.762;2024-03-02T09:06:15;12.30;71.70
80296;DHT22;74188;42.148;24.762;2024-03-02T09:08:44;12.40;72.10
80296;DHT22;74188;42.148;24.762;2024-03-02T09:11:10;12.30;71.10
80296;DHT22;74188;42.148;24.762;2024-03-02T09:13:38;12.30;71.00
80296;DHT22;74188;42.148;24.762;2024-03-02T09:16:04;12.30;70.90
80296;DHT22;74188;42.148;24.762;2024-03-02T09:18:30;12.40;70.80
80296;DHT22;74188;42.148;24.762;2024-03-02T09:20:56;12.50;70.70
80296;DHT22;74188;42.148;24.762;2024-03-02T09:23:22;12.50;70.40
80296;DHT22;74188;42.148;24.762;2024-03-02T09:25:47;12.50;70.40
80296;DHT22;74188;42.148;24.762;2024-03-02T09:28:15;12.50;70.40
80296;DHT22;74188;42.148;24.762;2024-03-02T09:30:41;12.50;70.30
80296;DHT22;74188;42.148;24.762;2024-03-02T09:33:06;12.60;70.30
80296;DHT22;74188;42.148;24.762;2024-03-02T09:35:32;12.50;70.40
80296;DHT22;74188;42.148;24.762;2024-03-02T09:37:58;12.50;70.40
80296;DHT22;74188;42.148;24.762;2024-03-02T09:40:24;12.50;70.50
80296;DHT22;74188;42.148;24.762;2024-03-02T09:42:50;12.50;70.40
80296;DHT22;74188;42.148;24.762;2024-03-02T09:45:25;12.50;70.30
80296;DHT22;74188;42.148;24.762;2024-03-02T09:47:51;12.60;70.30
80296;DHT22;74188;42.148;24.762;2024-03-02T09:50:16;12.60;70.10
80296;DHT22;74188;42.148;24.762;2024-03-02T09:52:43;12.70;70.30
80296;DHT22;74188;42.148;24.762;2024-03-02T09:55:09;12.80;70.10
80296;DHT22;74188;42.148;24.762;2024-03-02T09:57:35;12.90;69.20
80296;DHT22;74188;42.148;24.762;2024-03-02T10:00:01;13.10;68.80
80296;DHT22;74188;42.148;24.762;2024-03-02T10:02:27;13.20;68.20
80296;DHT22;74188;42.148;24.762;2024-03-02T10:04:52;13.40;67.50
80296;DHT22;74188;42.148;24.762;2024-03-02T10:07:19;13.60;66.60
80296;DHT22;74188;42.148;24.762;2024-03-02T10:09:49;13.60;65.90
80296;DHT22;74188;42.148;24.762;2024-03-02T10:12:18;13.70;66.30
80296;DHT22;74188;42.148;24.762;2024-03-02T10:14:44;13.80;65.20
80296;DHT22;74188;42.148;24.762;2024-03-02T10:17:12;13.70;65.20
80296;DHT22;74188;42.148;24.762;2024-03-02T10:19:39;13.70;65.30
80296;DHT22;74188;42.148;24.762;2024-03-02T10:22:06;13.60;65.50
80296;DHT22;74188;42.148;24.762;2024-03-02T10:24:40;13.40;65.80
80296;DHT22;74188;42.148;24.762;2024-03-02T10:27:17;13.40;66.80
80296;DHT22;74188;42.148;24.762;2024-03-02T10:29:46;13.40;67.30
80296;DHT22;74188;42.148;24.762;2024-03-02T10:32:12;13.30;67.10
80296;DHT22;74188;42.148;24.762;2024-03-02T10:34:42;13.40;66.70
80296;DHT22;74188;42.148;24.762;2024-03-02T10:37:08;13.30;66.90
80296;DHT22;74188;42.148;24.762;2024-03-02T10:39:35;13.20;67.20
80296;DHT22;74188;42.148;24.762;2024-03-02T10:42:02;13.30;67.10
80296;DHT22;74188;42.148;24.762;2024-03-02T10:44:30;13.40;66.70
80296;DHT22;74188;42.148;24.762;2024-03-02T10:46:56;13.50;66.10
80296;DHT22;74188;42.148;24.762;2024-03-02T10:49:23;13.60;66.20
80296;DHT22;74188;42.148;24.762;2024-03-02T10:51:51;13.70;66.00
80296;DHT22;74188;42.148;24.762;2024-03-02T10:54:17;13.70;65.20
80296;DHT22;74188;42.148;24.762;2024-03-02T10:56:44;13.70;65.00
80296;DHT22;74188;42.148;24.762;2024-03-02T11:01:39;13.80;65.30
80296;DHT22;74188;42.148;24.762;2024-03-02T11:04:08;13.80;65.40
80296;DHT22;74188;42.148;24.762;2024-03-02T11:06:36;13.70;65.60
80296;DHT22;74188;42.148;24.762;2024-03-02T11:09:07;13.60;66.00
80296;DHT22;74188;42.148;24.762;2024-03-02T11:11:37;13.50;66.50
80296;DHT22;74188;42.148;24.762;2024-03-02T11:14:07;13.40;66.80
80296;DHT22;74188;42.148;24.762;2024-03-02T11:16:38;13.40;67.30
80296;DHT22;74188;42.148;24.762;2024-03-02T11:19:10;13.30;67.60
80296;DHT22;74188;42.148;24.762;2024-03-02T11:21:36;13.40;67.50
80296;DHT22;74188;42.148;24.762;2024-03-02T11:26:47;13.50;67.10
80296;DHT22;74188;42.148;24.762;2024-03-02T11:32:05;13.40;67.50
80296;DHT22;74188;42.148;24.762;2024-03-02T11:34:35;13.40;67.70
80296;DHT22;74188;42.148;24.762;2024-03-02T11:37:02;13.40;67.70
80296;DHT22;74188;42.148;24.762;2024-03-02T11:39:30;13.40;67.30
80296;DHT22;74188;42.148;24.762;2024-03-02T11:41:59;13.50;67.40
80296;DHT22;74188;42.148;24.762;2024-03-02T11:44:28;13.60;66.80
80296;DHT22;74188;42.148;24.762;2024-03-02T11:47:01;13.70;66.60
80296;DHT22;74188;42.148;24.762;2024-03-02T11:49:50;13.80;66.20
80296;DHT22;74188;42.148;24.762;2024-03-02T11:52:17;13.90;66.50
80296;DHT22;74188;42.148;24.762;2024-03-02T11:54:47;13.90;67.20
80296;DHT22;74188;42.148;24.762;2024-03-02T11:57:23;14.10;66.00
80296;DHT22;74188;42.148;24.762;2024-03-02T11:59:49;14.10;65.70
80296;DHT22;74188;42.148;24.762;2024-03-02T12:02:17;14.20;65.50
80296;DHT22;74188;42.148;24.762;2024-03-02T12:04:43;14.40;64.50
80296;DHT22;74188;42.148;24.762;2024-03-02T12:07:11;14.60;63.50
80296;DHT22;74188;42.148;24.762;2024-03-02T12:09:37;15.00;62.40
80296;DHT22;74188;42.148;24.762;2024-03-02T12:12:09;15.20;60.80
80296;DHT22;74188;42.148;24.762;2024-03-02T12:14:37;15.40;59.70
80296;DHT22;74188;42.148;24.762;2024-03-02T12:17:04;15.40;59.20
80296;DHT22;74188;42.148;24.762;2024-03-02T12:19:31;15.50;58.10
80296;DHT22;74188;42.148;24.762;2024-03-02T12:21:57;15.20;58.90
80296;DHT22;74188;42.148;24.762;2024-03-02T12:24:27;15.10;59.70
80296;DHT22;74188;42.148;24.762;2024-03-02T12:26:53;15.00;60.20
80296;DHT22;74188;42.148;24.762;2024-03-02T12:29:20;14.80;59.90
80296;DHT22;74188;42.148;24.762;2024-03-02T12:31:50;14.70;61.30
80296;DHT22;74188;42.148;24.762;2024-03-02T12:34:17;14.80;61.30
80296;DHT22;74188;42.148;24.762;2024-03-02T12:36:43;14.80;61.40
80296;DHT22;74188;42.148;24.762;2024-03-02T12:39:09;14.80;60.30
80296;DHT22;74188;42.148;24.762;2024-03-02T12:41:41;14.60;61.60
80296;DHT22;74188;42.148;24.762;2024-03-02T12:44:07;14.50;62.30
80296;DHT22;74188;42.148;24.762;2024-03-02T12:46:34;14.40;62.80
80296;DHT22;74188;42.148;24.762;2024-03-02T12:49:11;14.30;62.60
80296;DHT22;74188;42.148;24.762;2024-03-02T12:51:39;14.20;62.70
80296;DHT22;74188;42.148;24.762;2024-03-02T12:54:06;14.00;63.60
80296;DHT22;74188;42.148;24.762;2024-03-02T12:56:32;14.00;64.10
80296;DHT22;74188;42.148;24.762;2024-03-02T12:58:58;14.00;64.30
80296;DHT22;74188;42.148;24.762;2024-03-02T13:01:25;13.90;64.70
80296;DHT22;74188;42.148;24.762;2024-03-02T13:03:52;14.00;64.90
80296;DHT22;74188;42.148;24.762;2024-03-02T13:06:18;14.00;64.70
80296;DHT22;74188;42.148;24.762;2024-03-02T13:08:45;14.00;64.30
80296;DHT22;74188;42.148;24.762;2024-03-02T13:11:11;13.90;64.30
80296;DHT22;74188;42.148;24.762;2024-03-02T13:13:39;13.80;65.20
80296;DHT22;74188;42.148;24.762;2024-03-02T13:16:08;13.70;65.80
80296;DHT22;74188;42.148;24.762;2024-03-02T13:18:35;13.70;65.30
80296;DHT22;74188;42.148;24.762;2024-03-02T13:21:01;13.70;65.20
80296;DHT22;74188;42.148;24.762;2024-03-02T13:23:27;13.60;65.90
80296;DHT22;74188;42.148;24.762;2024-03-02T13:25:59;13.70;65.10
80296;DHT22;74188;42.148;24.762;2024-03-02T13:28:25;13.60;65.40
80296;DHT22;74188;42.148;24.762;2024-03-02T13:30:51;13.60;65.50
80296;DHT22;74188;42.148;24.762;2024-03-02T13:33:17;13.50;66.00
80296;DHT22;74188;42.148;24.762;2024-03-02T13:35:51;13.40;66.40
80296;DHT22;74188;42.148;24.762;2024-03-02T13:38:20;13.30;66.80
80296;DHT22;74188;42.148;24.762;2024-03-02T13:40:46;13.30;67.00
80296;DHT22;74188;42.148;24.762;2024-03-02T13:43:13;13.40;66.60
80296;DHT22;74188;42.148;24.762;2024-03-02T13:45:39;13.30;67.20
80296;DHT22;74188;42.148;24.762;2024-03-02T13:48:05;13.20;67.20
80296;DHT22;74188;42.148;24.762;2024-03-02T13:50:31;13.10;67.50
80296;DHT22;74188;42.148;24.762;2024-03-02T13:52:57;13.10;67.60
80296;DHT22;74188;42.148;24.762;2024-03-02T13:55:23;13.10;67.70
80296;DHT22;74188;42.148;24.762;2024-03-02T13:57:48;13.20;67.40
80296;DHT22;74188;42.148;24.762;2024-03-02T14:00:16;13.30;67.30
80296;DHT22;74188;42.148;24.762;2024-03-02T14:02:43;13.30;67.10
80296;DHT22;74188;42.148;24.762;2024-03-02T14:05:08;13.30;67.00
80296;DHT22;74188;42.148;24.762;2024-03-02T14:07:40;13.30;66.60
80296;DHT22;74188;42.148;24.762;2024-03-02T14:10:06;13.30;66.60
80296;DHT22;74188;42.148;24.762;2024-03-02T14:12:32;13.20;67.10
80296;DHT22;74188;42.148;24.762;2024-03-02T14:14:58;13.30;66.70
80296;DHT22;74188;42.148;24.762;2024-03-02T14:17:25;13.30;66.80
80296;DHT22;74188;42.148;24.762;2024-03-02T14:19:50;13.30;66.00
80296;DHT22;74188;42.148;24.762;2024-03-02T14:22:17;13.20;66.90
80296;DHT22;74188;42.148;24.762;2024-03-02T14:24:43;13.10;67.50
80296;DHT22;74188;42.148;24.762;2024-03-02T14:27:09;13.00;68.00
80296;DHT22;74188;42.148;24.762;2024-03-02T14:29:35;13.00;68.20
80296;DHT22;74188;42.148;24.762;2024-03-02T14:32:03;13.00;68.10
80296;DHT22;74188;42.148;24.762;2024-03-02T14:34:29;13.00;68.50
80296;DHT22;74188;42.148;24.762;2024-03-02T14:36:55;13.00;68.20
80296;DHT22;74188;42.148;24.762;2024-03-02T14:39:21;13.10;67.70
80296;DHT22;74188;42.148;24.762;2024-03-02T14:41:47;13.00;68.00
80296;DHT22;74188;42.148;24.762;2024-03-02T14:44:12;12.90;68.80
80296;DHT22;74188;42.148;24.762;2024-03-02T14:46:38;12.80;69.60
80296;DHT22;74188;42.148;24.762;2024-03-02T14:49:04;12.70;70.00
80296;DHT22;74188;42.148;24.762;2024-03-02T14:51:30;12.80;69.50
80296;DHT22;74188;42.148;24.762;2024-03-02T14:53:56;12.70;70.10
80296;DHT22;74188;42.148;24.762;2024-03-02T14:56:21;12.70;70.30
80296;DHT22;74188;42.148;24.762;2024-03-02T14:58:47;12.80;70.20
80296;DHT22;74188;42.148;24.762;2024-03-02T15:01:13;12.80;70.10
80296;DHT22;74188;42.148;24.762;2024-03-02T15:03:40;12.80;70.10
80296;DHT22;74188;42.148;24.762;2024-03-02T15:06:06;12.70;70.00
80296;DHT22;74188;42.148;24.762;2024-03-02T15:08:33;12.70;69.80
80296;DHT22;74188;42.148;24.762;2024-03-02T15:10:59;12.60;69.40
80296;DHT22;74188;42.148;24.762;2024-03-02T15:13:25;12.60;69.80
80296;DHT22;74188;42.148;24.762;2024-03-02T15:15:52;12.60;69.50
80296;DHT22;74188;42.148;24.762;2024-03-02T15:18:18;12.60;69.70
80296;DHT22;74188;42.148;24.762;2024-03-02T15:20:44;12.50;70.10
80296;DHT22;74188;42.148;24.762;2024-03-02T15:23:09;12.50;70.40